Time;durP1;ratioP1;P1;durP2;ratioP2;P2;SDS_P1;SDS_P2;PMS_P1;PMS_P2;Temp;Humidity;BMP_temperature;BMP_pressure;BME280_temperature;BME280_humidity;BME280_pressure;Samples;Min_cycle;Max_cycle;Signal;HPM_P1;HPM_P2
2023/05/29 00:01:06;;;;;;;8.13;7.37;;;;;;;;;;5135475;27;20470;-77
2023/05/29 00:03:46;;;;;;;8.90;7.63;;;;;;;;;;5138154;27;20446;-76
2023/05/29 00:09:33;;;;;;;8.70;7.30;;;;;;;;;;5122667;27;20833;-76
2023/05/29 00:12:18;;;;;;;8.00;7.20;;;;;;;;;;5129338;27;20442;-77
2023/05/29 00:17:58;;;;;;;8.10;7.30;;;;;;;;;;5136785;27;20424;-77
2023/05/29 00:20:34;;;;;;;9.77;7.63;;;;;;;;;;5141430;27;20449;-77
2023/05/29 00:23:09;;;;;;;9.93;7.57;;;;;;;;;;5130663;28;20441;-77
2023/05/29 00:26:06;;;;;;;7.57;6.77;;;;;;;;;;5142441;27;20548;-77
2023/05/29 00:28:38;;;;;;;8.50;7.50;;;;;;;;;;5137188;28;20458;-77
2023/05/29 00:40:27;;;;;;;9.40;7.57;;;;;;;;;;5073355;28;20440;-76
2023/05/29 00:46:15;;;;;;;7.97;7.03;;;;;;;;;;5072311;28;20940;-76
2023/05/29 00:52:11;;;;;;;;;;;;;;;;;;;;;
2023/05/29 00:54:57;;;;;;;10.60;7.07;;;;;;;;;;5074849;28;20611;-77
2023/05/29 01:03:35;;;;;;;11.70;7.10;;;;;;;;;;5079480;28;20448;-77
2023/05/29 01:06:13;;;;;;;8.23;7.43;;;;;;;;;;5122436;28;20438;-77
2023/05/29 01:09:15;;;;;;;;;;;;;;;;;;;;;
2023/05/29 01:12:12;;;;;;;;;;;;;;;;;;;;;
2023/05/29 01:17:49;;;;;;;10.93;6.80;;;;;;;;;;5122405;28;20419;-76
2023/05/29 01:23:40;;;;;;;9.70;7.63;;;;;;;;;;5142867;27;20436;-77
2023/05/29 01:26:36;;;;;;;9.13;7.30;;;;;;;;;;5108001;27;20450;-78
2023/05/29 01:29:11;;;;;;;7.67;6.90;;;;;;;;;;5136717;27;20478;-77
2023/05/29 01:32:04;;;;;;;7.93;6.63;;;;;;;;;;5137273;27;20465;-77
2023/05/29 01:34:36;;;;;;;7.60;6.73;;;;;;;;;;5136373;27;21043;-76
2023/05/29 01:37:23;;;;;;;10.27;7.10;;;;;;;;;;5136891;27;20454;-76
2023/05/29 01:40:10;;;;;;;8.07;7.27;;;;;;;;;;5137241;27;20450;-77
2023/05/29 01:54:56;;;;;;;7.47;6.67;;;;;;;;;;5133176;27;20474;-78
2023/05/29 01:57:47;;;;;;;7.03;6.43;;;;;;;;;;5136356;27;20544;-76
2023/05/29 02:00:45;;;;;;;8.90;6.63;;;;;;;;;;5137783;27;20470;-78
2023/05/29 02:03:38;;;;;;;7.70;6.77;;;;;;;;;;5113420;27;20445;-77
2023/05/29 02:15:43;;;;;;;8.93;7.20;;;;;;;;;;5017555;28;20917;-77
2023/05/29 02:22:16;;;;;;;7.00;6.30;;;;;;;;;;4962132;28;20456;-77
2023/05/29 02:25:24;;;;;;;8.60;7.27;;;;;;;;;;4975770;28;20461;-77
2023/05/29 02:28:08;;;;;;;7.00;6.20;;;;;;;;;;4943112;28;20510;-77
2023/05/29 02:31:17;;;;;;;7.57;6.87;;;;;;;;;;5017201;28;20467;-78
2023/05/29 02:37:06;;;;;;;7.23;6.43;;;;;;;;;;5013757;28;20436;-77
2023/05/29 02:46:26;;;;;;;8.43;6.47;;;;;;;;;;5104950;27;20968;-79
2023/05/29 02:49:09;;;;;;;7.27;6.53;;;;;;;;;;5139910;27;20449;-77
2023/05/29 03:04:19;;;;;;;7.03;6.43;;;;;;;;;;5075694;28;20448;-78
2023/05/29 03:10:37;;;;;;;;;;;;;;;;;;;;;
2023/05/29 03:22:19;;;;;;;;;;;;;;;;;;;;;
2023/05/29 03:25:18;;;;;;;8.03;6.80;;;;;;;;;;5010044;28;20447;-77
2023/05/29 03:31:03;;;;;;;9.30;7.27;;;;;;;;;;4964362;28;20455;-77
2023/05/29 03:39:51;;;;;;;;;;;;;;;;;;;;;
2023/05/29 03:42:43;;;;;;;7.70;6.90;;;;;;;;;;5115020;28;20612;-77
2023/05/29 03:54:23;;;;;;;10.60;6.57;;;;;;;;;;5106057;28;20457;-78
2023/05/29 03:59:44;;;;;;;8.90;7.00;;;;;;;;;;5119096;28;20450;-78
2023/05/29 04:05:55;;;;;;;;;;;;;;;;;;;;;
2023/05/29 04:12:13;;;;;;;8.03;6.23;;;;;;;;;;5072858;28;20488;-78
2023/05/29 04:18:08;;;;;;;8.53;6.90;;;;;;;;;;5018127;28;20439;-77
2023/05/29 04:32:48;;;;;;;7.83;6.70;;;;;;;;;;5144720;27;20446;-77
2023/05/29 04:47:59;;;;;;;8.33;6.90;;;;;;;;;;5137611;27;20436;-77
2023/05/29 05:00:00;;;;;;;7.97;7.17;;;;;;;;;;5008251;28;20429;-78
2023/05/29 05:08:42;;;;;;;8.37;6.17;;;;;;;;;;5084416;28;20439;-80
2023/05/29 05:11:11;;;;;;;12.10;6.37;;;;;;;;;;5129437;28;20519;-78
2023/05/29 05:17:06;;;;;;;8.07;6.90;;;;;;;;;;5017239;28;20421;-78
2023/05/29 05:19:57;;;;;;;6.77;6.00;;;;;;;;;;5100396;27;20442;-78
2023/05/29 05:22:57;;;;;;;8.73;6.57;;;;;;;;;;5146288;27;20474;-78
2023/05/29 05:35:25;;;;;;;;;;;;;;;;;;;;;
2023/05/29 06:02:59;;;;;;;9.00;6.80;;;;;;;;;;4967741;29;20445;-77
2023/05/29 06:12:21;;;;;;;6.40;5.80;;;;;;;;;;5006955;28;20470;-76
2023/05/29 06:33:45;;;;;;;;;;;;;;;;;;;;;
2023/05/29 06:43:03;;;;;;;9.90;6.07;;;;;;;;;;4930992;29;20498;-77
2023/05/29 06:45:58;;;;;;;6.77;6.10;;;;;;;;;;4987379;28;20812;-77
2023/05/29 06:48:28;;;;;;;7.10;5.93;;;;;;;;;;5018250;28;20514;-80
2023/05/29 06:51:18;;;;;;;6.43;5.73;;;;;;;;;;5027581;28;21022;-77
2023/05/29 06:53:57;;;;;;;8.87;6.27;;;;;;;;;;5027973;28;20442;-81
2023/05/29 06:59:58;;;;;;;8.50;5.47;;;;;;;;;;5148509;27;20417;-78
2023/05/29 07:11:33;;;;;;;7.93;6.17;;;;;;;;;;5155878;27;20461;-79
2023/05/29 07:14:01;;;;;;;6.53;5.83;;;;;;;;;;5153107;27;20513;-77
2023/05/29 07:19:55;;;;;;;6.00;5.50;;;;;;;;;;5098092;28;20527;-78
2023/05/29 07:25:41;;;;;;;8.80;6.10;;;;;;;;;;5136454;27;20432;-77
2023/05/29 07:28:12;;;;;;;8.00;6.07;;;;;;;;;;5141044;27;20450;-78
2023/05/29 07:30:46;;;;;;;6.53;5.90;;;;;;;;;;5141284;27;20493;-77
2023/05/29 07:33:41;;;;;;;;;;;;;;;;;;;;;
2023/05/29 07:36:26;;;;;;;6.50;5.20;;;;;;;;;;5141097;27;20481;-78
2023/05/29 07:39:24;;;;;;;;;;;;;;;;;;;;;
2023/05/29 07:51:01;;;;;;;6.70;6.00;;;;;;;;;;5022232;28;20462;-80
2023/05/29 07:53:32;;;;;;;6.00;5.50;;;;;;;;;;5021216;28;20903;-77
2023/05/29 07:58:59;;;;;;;7.10;5.83;;;;;;;;;;5126680;27;20954;-78
2023/05/29 08:01:45;;;;;;;6.00;5.40;;;;;;;;;;5138070;27;20469;-80
2023/05/29 08:07:49;;;;;;;;;;;;;;;;;;;;;
2023/05/29 08:10:47;;;;;;;6.73;5.57;;;;;;;;;;5139028;28;20505;-78
2023/05/29 08:13:27;;;;;;;6.23;5.60;;;;;;;;;;5137231;27;20450;-78
2023/05/29 08:16:14;;;;;;;8.23;5.03;;;;;;;;;;5138399;27;20469;-79
2023/05/29 08:18:53;;;;;;;7.00;5.57;;;;;;;;;;5103984;28;20472;-79
2023/05/29 08:24:42;;;;;;;6.00;5.50;;;;;;;;;;5111383;28;20439;-77
2023/05/29 08:27:23;;;;;;;10.47;5.83;;;;;;;;;;5110451;28;20442;-79
2023/05/29 08:29:51;;;;;;;5.97;5.10;;;;;;;;;;5114234;28;20457;-78
2023/05/29 08:35:15;;;;;;;6.77;6.07;;;;;;;;;;5113393;28;20529;-77
2023/05/29 08:37:51;;;;;;;7.07;5.37;;;;;;;;;;5117332;28;20454;-78
2023/05/29 08:40:22;;;;;;;10.40;5.33;;;;;;;;;;5114400;28;20523;-77
2023/05/29 08:43:01;;;;;;;8.10;6.43;;;;;;;;;;5114538;28;20442;-80
2023/05/29 08:48:32;;;;;;;6.77;6.07;;;;;;;;;;5106054;28;20427;-78
2023/05/29 08:51:10;;;;;;;6.33;5.73;;;;;;;;;;5117607;28;20474;-79
2023/05/29 08:53:40;;;;;;;6.73;5.20;;;;;;;;;;5116645;28;20446;-78
2023/05/29 08:56:11;;;;;;;6.17;5.67;;;;;;;;;;5114929;28;20485;-77
2023/05/29 08:58:54;;;;;;;6.63;5.50;;;;;;;;;;5115977;28;20534;-78
2023/05/29 09:01:23;;;;;;;6.20;5.60;;;;;;;;;;5116815;28;20474;-77
2023/05/29 09:04:01;;;;;;;5.47;5.07;;;;;;;;;;5117931;28;20459;-77
2023/05/29 09:06:36;;;;;;;6.63;5.83;;;;;;;;;;5118313;28;20450;-79
2023/05/29 09:09:14;;;;;;;6.20;5.27;;;;;;;;;;5119296;28;20456;-77
2023/05/29 09:20:44;;;;;;;8.30;6.33;;;;;;;;;;5130835;27;20495;-79
2023/05/29 09:23:24;;;;;;;6.53;5.13;;;;;;;;;;5144092;27;20507;-77
2023/05/29 09:25:54;;;;;;;6.63;5.60;;;;;;;;;;5145210;27;20445;-77
2023/05/29 09:28:28;;;;;;;5.93;5.43;;;;;;;;;;5142557;27;20441;-79
2023/05/29 09:31:21;;;;;;;;;;;;;;;;;;;;;
2023/05/29 09:40:12;;;;;;;6.33;5.57;;;;;;;;;;5140152;27;20428;-77
2023/05/29 09:42:57;;;;;;;6.07;5.47;;;;;;;;;;5140373;27;20477;-78
2023/05/29 09:45:49;;;;;;;6.10;5.50;;;;;;;;;;5140991;27;20450;-77
2023/05/29 09:48:41;;;;;;;6.30;5.30;;;;;;;;;;5140625;27;20498;-77
2023/05/29 09:57:44;;;;;;;5.73;5.17;;;;;;;;;;5138638;27;21084;-78
2023/05/29 10:00:41;;;;;;;5.73;5.10;;;;;;;;;;5140729;27;20450;-78
2023/05/29 10:08:55;;;;;;;10.77;5.53;;;;;;;;;;5148761;27;20475;-77
2023/05/29 10:11:30;;;;;;;6.97;4.90;;;;;;;;;;5153171;27;20497;-76
2023/05/29 10:16:57;;;;;;;5.67;5.17;;;;;;;;;;5118565;27;20473;-77
2023/05/29 10:19:28;;;;;;;9.03;5.13;;;;;;;;;;5148655;27;20466;-78
2023/05/29 10:24:52;;;;;;;5.40;3.93;;;;;;;;;;5116886;28;20459;-77
2023/05/29 10:27:25;;;;;;;4.90;4.10;;;;;;;;;;5116653;28;20447;-78
2023/05/29 10:29:57;;;;;;;6.20;4.57;;;;;;;;;;5116799;28;20427;-78
2023/05/29 10:35:18;;;;;;;5.50;4.20;;;;;;;;;;5126852;27;20439;-78
2023/05/29 10:37:50;;;;;;;4.80;4.40;;;;;;;;;;5122506;28;20887;-77
2023/05/29 10:40:27;;;;;;;5.93;5.30;;;;;;;;;;5117534;28;20462;-76
2023/05/29 10:42:59;;;;;;;5.23;4.73;;;;;;;;;;5119301;28;20471;-77
2023/05/29 10:45:41;;;;;;;7.57;4.40;;;;;;;;;;5119081;28;20454;-78
2023/05/29 10:51:26;;;;;;;5.13;4.70;;;;;;;;;;5115323;28;20450;-76
2023/05/29 10:53:53;;;;;;;5.70;4.30;;;;;;;;;;5119068;28;20453;-80
2023/05/29 10:56:31;;;;;;;5.30;4.80;;;;;;;;;;5116070;28;20486;-78
2023/05/29 10:59:05;;;;;;;5.83;4.80;;;;;;;;;;5118304;28;20439;-78
2023/05/29 11:01:32;;;;;;;5.10;4.70;;;;;;;;;;5118508;28;20546;-79
2023/05/29 11:04:28;;;;;;;6.40;4.70;;;;;;;;;;5117279;28;20447;-78
2023/05/29 11:06:58;;;;;;;5.87;4.43;;;;;;;;;;5057780;28;20512;-77
2023/05/29 11:09:29;;;;;;;4.87;4.30;;;;;;;;;;5115530;28;20450;-78
2023/05/29 11:12:23;;;;;;;5.33;4.53;;;;;;;;;;5115497;28;20481;-77
2023/05/29 11:14:55;;;;;;;5.53;4.20;;;;;;;;;;5114443;28;20950;-79
2023/05/29 11:17:30;;;;;;;4.47;4.07;;;;;;;;;;5114662;28;20481;-81
2023/05/29 11:19:58;;;;;;;4.63;4.23;;;;;;;;;;5113627;28;20982;-79
2023/05/29 11:22:28;;;;;;;6.90;4.17;;;;;;;;;;5114448;28;20447;-76
2023/05/29 11:24:59;;;;;;;5.43;4.40;;;;;;;;;;5114727;28;20447;-80
2023/05/29 11:27:31;;;;;;;5.20;4.70;;;;;;;;;;5114758;28;20979;-77
2023/05/29 11:29:59;;;;;;;4.43;4.13;;;;;;;;;;5113819;28;20500;-79
2023/05/29 11:32:28;;;;;;;4.03;3.67;;;;;;;;;;5114489;28;20454;-77
2023/05/29 11:34:59;;;;;;;4.90;4.50;;;;;;;;;;5114781;28;20446;-76
2023/05/29 11:37:26;;;;;;;8.03;5.73;;;;;;;;;;5115311;28;20475;-75
2023/05/29 11:39:53;;;;;;;6.00;5.40;;;;;;;;;;5118142;28;20447;-77
2023/05/29 11:42:25;;;;;;;6.50;4.57;;;;;;;;;;5117790;28;20439;-77
2023/05/29 11:44:54;;;;;;;5.00;3.87;;;;;;;;;;5119015;28;20449;-79
2023/05/29 11:50:19;;;;;;;5.23;4.23;;;;;;;;;;5125020;27;20472;-77
2023/05/29 11:52:47;;;;;;;3.87;3.50;;;;;;;;;;5141587;27;20521;-76
2023/05/29 11:55:14;;;;;;;4.47;4.03;;;;;;;;;;5133413;27;20439;-77
2023/05/29 12:00:44;;;;;;;4.63;4.23;;;;;;;;;;5103294;28;20546;-76
2023/05/29 12:03:12;;;;;;;4.37;3.97;;;;;;;;;;5120927;28;20437;-80
2023/05/29 12:05:48;;;;;;;5.10;3.70;;;;;;;;;;5117250;28;20447;-77
2023/05/29 12:08:16;;;;;;;4.00;3.70;;;;;;;;;;5115252;28;20840;-76
2023/05/29 12:11:09;;;;;;;;;;;;;;;;;;;;;
2023/05/29 12:13:37;;;;;;;4.53;3.77;;;;;;;;;;5114544;28;20531;-75
2023/05/29 12:16:09;;;;;;;4.83;3.57;;;;;;;;;;5114278;28;20446;-75
2023/05/29 12:18:36;;;;;;;6.10;3.73;;;;;;;;;;5113381;28;20875;-76
2023/05/29 12:21:09;;;;;;;5.53;3.13;;;;;;;;;;5113596;28;20490;-76
2023/05/29 12:23:39;;;;;;;4.00;3.70;;;;;;;;;;5115695;28;20550;-78
2023/05/29 12:26:07;;;;;;;5.17;3.73;;;;;;;;;;5111845;28;21254;-76
2023/05/29 12:28:37;;;;;;;3.83;3.47;;;;;;;;;;5112428;28;20431;-77
2023/05/29 12:31:11;;;;;;;3.70;3.43;;;;;;;;;;5112279;28;20978;-75
2023/05/29 12:33:44;;;;;;;3.87;3.57;;;;;;;;;;5113769;28;20487;-78
2023/05/29 12:36:14;;;;;;;4.20;3.80;;;;;;;;;;5114309;28;20445;-80
2023/05/29 12:38:50;;;;;;;3.60;3.40;;;;;;;;;;5111911;28;20482;-79
2023/05/29 12:41:30;;;;;;;4.60;4.10;;;;;;;;;;5113113;28;20484;-81
2023/05/29 12:44:02;;;;;;;4.97;4.20;;;;;;;;;;5114814;28;20446;-77
2023/05/29 12:46:37;;;;;;;4.10;3.80;;;;;;;;;;5116554;28;20431;-79
2023/05/29 12:49:29;;;;;;;3.90;3.60;;;;;;;;;;5116653;28;20445;-77
2023/05/29 12:51:56;;;;;;;3.30;3.00;;;;;;;;;;5116118;28;20857;-77
2023/05/29 12:54:23;;;;;;;3.83;3.60;;;;;;;;;;5115022;28;20459;-76
2023/05/29 12:56:51;;;;;;;3.70;3.40;;;;;;;;;;5114533;28;20555;-77
2023/05/29 12:59:18;;;;;;;3.80;3.50;;;;;;;;;;5114805;28;20459;-76
2023/05/29 13:01:48;;;;;;;5.00;3.63;;;;;;;;;;5115316;28;20483;-77
2023/05/29 13:04:18;;;;;;;4.40;4.00;;;;;;;;;;5114648;28;20461;-78
2023/05/29 13:06:46;;;;;;;4.07;3.77;;;;;;;;;;5114965;28;20490;-77
2023/05/29 13:09:13;;;;;;;3.60;3.30;;;;;;;;;;5115084;28;20460;-80
2023/05/29 13:11:41;;;;;;;4.00;3.67;;;;;;;;;;5114566;28;20469;-76
2023/05/29 13:14:08;;;;;;;4.10;3.80;;;;;;;;;;5114893;28;20447;-76
2023/05/29 13:16:38;;;;;;;5.77;3.73;;;;;;;;;;5115392;28;20507;-76
2023/05/29 13:19:06;;;;;;;4.40;4.00;;;;;;;;;;5118234;27;20451;-79
2023/05/29 13:21:35;;;;;;;4.37;3.97;;;;;;;;;;5137434;27;20470;-78
2023/05/29 13:24:02;;;;;;;4.10;3.80;;;;;;;;;;5137570;27;20464;-77
2023/05/29 13:26:30;;;;;;;3.60;3.30;;;;;;;;;;5136894;27;20449;-79
2023/05/29 13:29:00;;;;;;;4.10;3.70;;;;;;;;;;5136947;27;20444;-77
2023/05/29 13:31:30;;;;;;;3.97;3.53;;;;;;;;;;5138484;27;20473;-76
2023/05/29 13:34:01;;;;;;;3.87;3.57;;;;;;;;;;5138374;27;20850;-77
2023/05/29 13:36:31;;;;;;;4.43;3.60;;;;;;;;;;5138444;27;20448;-78
2023/05/29 13:38:58;;;;;;;4.20;3.90;;;;;;;;;;5138120;27;20480;-76
2023/05/29 13:41:31;;;;;;;4.17;3.87;;;;;;;;;;5138268;27;21006;-77
2023/05/29 13:43:58;;;;;;;4.57;4.17;;;;;;;;;;5138244;27;20442;-78
2023/05/29 13:46:26;;;;;;;5.00;3.53;;;;;;;;;;5140656;27;20454;-76
2023/05/29 13:48:54;;;;;;;4.47;4.10;;;;;;;;;;5143087;27;20527;-77
2023/05/29 13:51:31;;;;;;;4.40;4.00;;;;;;;;;;5144372;27;20560;-76
2023/05/29 13:54:00;;;;;;;4.27;3.87;;;;;;;;;;5143290;27;20433;-76
2023/05/29 13:56:28;;;;;;;4.43;3.70;;;;;;;;;;5141740;27;20469;-75
2023/05/29 13:58:56;;;;;;;4.43;4.03;;;;;;;;;;5145482;27;20470;-76
2023/05/29 14:01:24;;;;;;;4.93;3.93;;;;;;;;;;5144272;27;20458;-77
2023/05/29 14:03:51;;;;;;;6.33;4.00;;;;;;;;;;5141012;27;20452;-76
2023/05/29 14:06:27;;;;;;;4.30;4.00;;;;;;;;;;5153327;27;20438;-76
2023/05/29 14:08:55;;;;;;;4.50;4.10;;;;;;;;;;5150353;27;20513;-78
2023/05/29 14:11:25;;;;;;;3.67;3.37;;;;;;;;;;5136978;27;20510;-77
2023/05/29 14:13:53;;;;;;;5.50;3.60;;;;;;;;;;5146603;27;20445;-78
2023/05/29 14:16:22;;;;;;;4.23;3.57;;;;;;;;;;5145264;27;20438;-76
2023/05/29 14:18:50;;;;;;;3.93;3.23;;;;;;;;;;5145172;27;20505;-77
2023/05/29 14:21:17;;;;;;;4.30;4.00;;;;;;;;;;5147956;27;20465;-80
2023/05/29 14:23:47;;;;;;;3.90;3.60;;;;;;;;;;5145320;27;20442;-76
2023/05/29 14:26:16;;;;;;;4.90;3.83;;;;;;;;;;5145079;27;20425;-76
2023/05/29 14:29:01;;;;;;;4.27;3.43;;;;;;;;;;5142738;27;20640;-76
2023/05/29 14:31:32;;;;;;;3.37;3.07;;;;;;;;;;5142528;27;20556;-76
2023/05/29 14:34:00;;;;;;;4.30;3.60;;;;;;;;;;5138239;27;20433;-78
2023/05/29 14:36:30;;;;;;;3.57;3.37;;;;;;;;;;5141662;27;20441;-79
2023/05/29 14:38:57;;;;;;;3.90;3.60;;;;;;;;;;5121919;27;20473;-79
2023/05/29 14:41:25;;;;;;;4.00;3.70;;;;;;;;;;5120626;28;20530;-76
2023/05/29 14:43:57;;;;;;;4.80;3.57;;;;;;;;;;5143639;27;20498;-76
2023/05/29 14:46:25;;;;;;;3.70;3.40;;;;;;;;;;5140937;27;20461;-78
2023/05/29 14:48:54;;;;;;;4.50;3.50;;;;;;;;;;5141641;27;20430;-75
2023/05/29 14:51:23;;;;;;;3.73;3.43;;;;;;;;;;5142653;27;20476;-77
2023/05/29 14:54:11;;;;;;;4.27;3.97;;;;;;;;;;5140112;27;20499;-78
2023/05/29 14:56:42;;;;;;;3.90;3.60;;;;;;;;;;5121888;28;20495;-75
2023/05/29 14:59:09;;;;;;;4.93;3.27;;;;;;;;;;5122190;28;20475;-76
2023/05/29 15:01:36;;;;;;;3.60;3.30;;;;;;;;;;5127636;28;20462;-77
2023/05/29 15:04:06;;;;;;;4.00;3.70;;;;;;;;;;5123404;28;20435;-75
2023/05/29 15:06:34;;;;;;;3.50;3.20;;;;;;;;;;5121158;28;20447;-77
2023/05/29 15:09:08;;;;;;;3.93;3.57;;;;;;;;;;5117909;28;20865;-79
2023/05/29 15:11:36;;;;;;;3.57;3.27;;;;;;;;;;5117839;28;20553;-77
2023/05/29 15:14:04;;;;;;;3.80;3.50;;;;;;;;;;5116269;28;20949;-76
2023/05/29 15:16:35;;;;;;;4.47;3.93;;;;;;;;;;5118975;28;20445;-80
2023/05/29 15:19:03;;;;;;;4.57;4.20;;;;;;;;;;5115419;28;21065;-77
2023/05/29 15:21:33;;;;;;;3.70;3.40;;;;;;;;;;5118284;28;20482;-77
2023/05/29 15:24:01;;;;;;;3.33;3.13;;;;;;;;;;5118442;27;20451;-78
2023/05/29 15:26:31;;;;;;;3.97;3.67;;;;;;;;;;5118103;28;20934;-76
2023/05/29 15:28:58;;;;;;;3.40;3.20;;;;;;;;;;5118116;28;20443;-79
2023/05/29 15:31:25;;;;;;;4.00;3.57;;;;;;;;;;5118471;28;20463;-78
2023/05/29 15:33:53;;;;;;;5.97;3.70;;;;;;;;;;5120259;28;20447;-78
2023/05/29 15:36:23;;;;;;;3.70;3.40;;;;;;;;;;5118918;28;20843;-76
2023/05/29 15:38:52;;;;;;;3.80;3.37;;;;;;;;;;5120021;28;20475;-76
2023/05/29 15:41:28;;;;;;;3.87;3.40;;;;;;;;;;5118828;28;20500;-77
2023/05/29 15:43:56;;;;;;;3.40;3.20;;;;;;;;;;5119111;28;20454;-77
2023/05/29 15:46:23;;;;;;;4.43;3.40;;;;;;;;;;5116605;28;20942;-78
2023/05/29 15:48:51;;;;;;;3.77;3.47;;;;;;;;;;5115210;28;20930;-77
2023/05/29 15:51:19;;;;;;;3.70;3.40;;;;;;;;;;5113998;28;20470;-76
2023/05/29 15:53:53;;;;;;;5.10;3.63;;;;;;;;;;5114716;28;20454;-76
2023/05/29 15:56:27;;;;;;;3.50;3.20;;;;;;;;;;5114209;28;20450;-77
2023/05/29 15:58:54;;;;;;;3.97;3.40;;;;;;;;;;5113634;28;20603;-77
2023/05/29 16:01:23;;;;;;;3.30;3.03;;;;;;;;;;5114202;28;21015;-78
2023/05/29 16:03:57;;;;;;;3.50;3.20;;;;;;;;;;5114647;28;20454;-76
2023/05/29 16:06:25;;;;;;;3.30;3.00;;;;;;;;;;5114664;28;20511;-78
2023/05/29 16:08:53;;;;;;;4.33;3.50;;;;;;;;;;5114110;28;20449;-74
2023/05/29 16:11:22;;;;;;;4.00;3.70;;;;;;;;;;5114108;28;20462;-78
2023/05/29 16:13:56;;;;;;;3.50;3.20;;;;;;;;;;5113413;28;20488;-76
2023/05/29 16:16:24;;;;;;;3.77;3.47;;;;;;;;;;5115109;28;20434;-75
2023/05/29 16:18:56;;;;;;;3.33;3.03;;;;;;;;;;5116305;28;20515;-77
2023/05/29 16:21:24;;;;;;;3.97;3.67;;;;;;;;;;5118435;28;20541;-75
2023/05/29 16:23:57;;;;;;;4.33;3.30;;;;;;;;;;5117635;28;20477;-77
2023/05/29 16:26:30;;;;;;;3.60;3.30;;;;;;;;;;5117948;28;20807;-76
2023/05/29 16:28:59;;;;;;;3.17;2.97;;;;;;;;;;5118143;28;20439;-77
2023/05/29 16:31:27;;;;;;;3.60;3.20;;;;;;;;;;5118561;28;20845;-77
2023/05/29 16:33:55;;;;;;;4.20;3.60;;;;;;;;;;5118522;28;21105;-78
2023/05/29 16:36:22;;;;;;;3.63;3.33;;;;;;;;;;5118237;28;20443;-75
2023/05/29 16:38:50;;;;;;;3.23;2.77;;;;;;;;;;5117618;28;21059;-77
2023/05/29 16:41:17;;;;;;;3.53;3.27;;;;;;;;;;5120306;28;20553;-77
2023/05/29 16:43:46;;;;;;;3.03;2.83;;;;;;;;;;5119381;28;20537;-78
2023/05/29 16:46:13;;;;;;;3.50;3.20;;;;;;;;;;5123428;28;20531;-77
2023/05/29 16:48:40;;;;;;;3.17;2.97;;;;;;;;;;5119251;28;21083;-76
2023/05/29 16:51:08;;;;;;;3.53;3.33;;;;;;;;;;5121062;28;20455;-78
2023/05/29 16:53:35;;;;;;;5.27;4.20;;;;;;;;;;5126115;28;20470;-78
2023/05/29 16:56:03;;;;;;;3.50;3.20;;;;;;;;;;5130715;28;20803;-77
2023/05/29 16:58:30;;;;;;;3.60;3.30;;;;;;;;;;5131294;28;20500;-78
2023/05/29 17:01:01;;;;;;;3.43;3.13;;;;;;;;;;5123987;28;20485;-79
2023/05/29 17:03:32;;;;;;;3.50;3.20;;;;;;;;;;5121792;28;20427;-77
2023/05/29 17:06:00;;;;;;;3.97;3.27;;;;;;;;;;5120537;28;20504;-76
2023/05/29 17:08:28;;;;;;;5.90;3.80;;;;;;;;;;5119577;28;20558;-76
2023/05/29 17:10:58;;;;;;;4.13;3.70;;;;;;;;;;5119943;28;20473;-78
2023/05/29 17:13:26;;;;;;;7.70;3.67;;;;;;;;;;5118829;28;20762;-77
2023/05/29 17:15:54;;;;;;;3.87;3.50;;;;;;;;;;5118500;28;20454;-78
2023/05/29 17:18:25;;;;;;;6.13;2.73;;;;;;;;;;5117565;28;20589;-77
2023/05/29 17:20:53;;;;;;;3.47;3.23;;;;;;;;;;5137195;27;20454;-77
2023/05/29 17:23:21;;;;;;;3.40;3.17;;;;;;;;;;5137786;27;20972;-78
2023/05/29 17:25:50;;;;;;;3.70;3.40;;;;;;;;;;5139645;27;20814;-76
2023/05/29 17:28:18;;;;;;;3.57;3.27;;;;;;;;;;5138803;27;20856;-79
2023/05/29 17:30:46;;;;;;;4.63;4.30;;;;;;;;;;5137874;27;20473;-80
2023/05/29 17:33:13;;;;;;;3.87;3.57;;;;;;;;;;5139012;27;21002;-80
2023/05/29 17:35:45;;;;;;;3.90;3.60;;;;;;;;;;5140627;27;20454;-79
2023/05/29 17:38:13;;;;;;;5.40;3.93;;;;;;;;;;5138073;27;20473;-79
2023/05/29 17:40:41;;;;;;;4.53;3.70;;;;;;;;;;5137367;27;21063;-76
2023/05/29 17:43:18;;;;;;;3.47;3.27;;;;;;;;;;5137778;27;20450;-76
2023/05/29 17:45:51;;;;;;;4.20;3.90;;;;;;;;;;5137805;27;20470;-75
2023/05/29 17:48:22;;;;;;;4.77;4.00;;;;;;;;;;5139201;27;20450;-77
2023/05/29 17:50:54;;;;;;;4.13;3.73;;;;;;;;;;5138051;27;20469;-75
2023/05/29 17:53:22;;;;;;;3.90;3.50;;;;;;;;;;5137129;27;20430;-75
2023/05/29 17:55:50;;;;;;;4.10;3.80;;;;;;;;;;5138275;27;20845;-76
2023/05/29 17:58:19;;;;;;;4.17;3.87;;;;;;;;;;5137311;27;20473;-78
2023/05/29 18:00:48;;;;;;;3.80;3.50;;;;;;;;;;5138096;27;20462;-78
2023/05/29 18:03:19;;;;;;;6.80;4.07;;;;;;;;;;5137180;27;20446;-78
2023/05/29 18:05:47;;;;;;;3.97;3.53;;;;;;;;;;5139109;27;20984;-76
2023/05/29 18:08:16;;;;;;;3.83;3.53;;;;;;;;;;5136982;27;20426;-77
2023/05/29 18:10:49;;;;;;;4.20;3.70;;;;;;;;;;5144906;27;20478;-78
2023/05/29 18:13:33;;;;;;;5.40;3.70;;;;;;;;;;5140133;27;20987;-77
2023/05/29 18:16:09;;;;;;;4.13;3.90;;;;;;;;;;5141039;27;20437;-76
2023/05/29 18:18:37;;;;;;;5.40;4.57;;;;;;;;;;5136544;27;20469;-77
2023/05/29 18:21:07;;;;;;;4.33;3.90;;;;;;;;;;5134905;27;20450;-78
2023/05/29 18:23:37;;;;;;;4.40;3.90;;;;;;;;;;5140722;27;20443;-77
2023/05/29 18:26:05;;;;;;;5.47;4.97;;;;;;;;;;5140254;27;20453;-78
2023/05/29 18:28:37;;;;;;;4.20;3.90;;;;;;;;;;5140920;27;20442;-76
2023/05/29 18:31:19;;;;;;;4.40;4.00;;;;;;;;;;5140823;27;20498;-77
2023/05/29 18:33:54;;;;;;;4.37;3.97;;;;;;;;;;5140130;27;20442;-77
2023/05/29 18:36:31;;;;;;;4.80;4.40;;;;;;;;;;5142079;27;20450;-75
2023/05/29 18:39:05;;;;;;;4.33;3.93;;;;;;;;;;5145271;27;20858;-77
2023/05/29 18:41:33;;;;;;;4.07;3.77;;;;;;;;;;5139602;27;20502;-77
2023/05/29 18:44:08;;;;;;;4.83;4.33;;;;;;;;;;5137764;27;20474;-77
2023/05/29 18:46:41;;;;;;;6.97;5.07;;;;;;;;;;5139146;27;20436;-78
2023/05/29 18:49:13;;;;;;;6.10;4.27;;;;;;;;;;5141132;27;20450;-81
2023/05/29 18:51:41;;;;;;;4.70;4.30;;;;;;;;;;5141561;27;20494;-78
2023/05/29 18:54:23;;;;;;;5.83;4.73;;;;;;;;;;5142885;27;20967;-78
2023/05/29 18:56:56;;;;;;;4.50;4.10;;;;;;;;;;5145483;27;20448;-77
2023/05/29 19:02:18;;;;;;;5.50;4.30;;;;;;;;;;5142251;27;20430;-79
2023/05/29 19:05:13;;;;;;;4.60;3.80;;;;;;;;;;5149233;27;20445;-78
2023/05/29 19:08:06;;;;;;;4.77;4.37;;;;;;;;;;5147995;27;20438;-78
2023/05/29 19:11:05;;;;;;;4.83;4.43;;;;;;;;;;5045202;28;20478;-78
2023/05/29 19:13:45;;;;;;;5.77;4.43;;;;;;;;;;5084633;27;20430;-76
2023/05/29 19:16:14;;;;;;;5.13;4.63;;;;;;;;;;5148012;27;20452;-77
2023/05/29 19:18:42;;;;;;;5.80;5.17;;;;;;;;;;5138698;27;20470;-77
2023/05/29 19:21:10;;;;;;;5.20;4.70;;;;;;;;;;5136111;27;20524;-78
2023/05/29 19:23:40;;;;;;;5.73;5.23;;;;;;;;;;5137795;27;20452;-76
2023/05/29 19:26:20;;;;;;;5.83;5.20;;;;;;;;;;5138293;27;20510;-77
2023/05/29 19:28:55;;;;;;;5.97;5.40;;;;;;;;;;5140483;27;20464;-78
2023/05/29 19:31:50;;;;;;;5.40;4.90;;;;;;;;;;5136292;27;20525;-76
2023/05/29 19:34:18;;;;;;;5.53;4.90;;;;;;;;;;5137654;27;20475;-76
2023/05/29 19:36:45;;;;;;;5.23;4.73;;;;;;;;;;5138147;27;20460;-80
2023/05/29 19:39:13;;;;;;;5.23;4.80;;;;;;;;;;5139646;27;20465;-79
2023/05/29 19:41:42;;;;;;;10.03;8.87;;;;;;;;;;5136173;27;21049;-77
2023/05/29 19:44:11;;;;;;;6.90;4.97;;;;;;;;;;5135286;27;20953;-77
2023/05/29 19:46:51;;;;;;;4.50;4.20;;;;;;;;;;5136734;27;21023;-78
2023/05/29 19:49:19;;;;;;;4.57;4.10;;;;;;;;;;5136712;27;20449;-76
2023/05/29 19:54:31;;;;;;;5.07;4.57;;;;;;;;;;5132412;27;20485;-79
2023/05/29 19:56:59;;;;;;;5.03;4.63;;;;;;;;;;5141555;27;20495;-75
2023/05/29 20:02:11;;;;;;;5.47;4.73;;;;;;;;;;5129229;27;20850;-78
2023/05/29 20:04:39;;;;;;;4.90;4.60;;;;;;;;;;5138881;27;20949;-75
2023/05/29 20:07:08;;;;;;;7.43;4.80;;;;;;;;;;5137559;27;20438;-76
2023/05/29 20:09:35;;;;;;;5.30;4.80;;;;;;;;;;5137245;27;20418;-77
2023/05/29 20:12:05;;;;;;;5.60;5.10;;;;;;;;;;5138589;27;20438;-78
2023/05/29 20:14:36;;;;;;;5.20;4.70;;;;;;;;;;5137811;27;20465;-77
2023/05/29 20:17:07;;;;;;;4.90;4.50;;;;;;;;;;5137368;27;20472;-76
2023/05/29 20:19:35;;;;;;;5.50;5.00;;;;;;;;;;5132156;27;20498;-77
2023/05/29 20:22:02;;;;;;;5.60;5.10;;;;;;;;;;5117477;28;20579;-79
2023/05/29 20:24:31;;;;;;;8.50;5.03;;;;;;;;;;5116265;28;20852;-77
2023/05/29 20:26:58;;;;;;;5.80;4.87;;;;;;;;;;5116268;28;20534;-77
2023/05/29 20:29:27;;;;;;;5.37;4.87;;;;;;;;;;5114310;28;20453;-76
2023/05/29 20:31:57;;;;;;;5.10;4.70;;;;;;;;;;5113726;28;20520;-77
2023/05/29 20:34:29;;;;;;;5.77;5.27;;;;;;;;;;5113590;28;20465;-78
2023/05/29 20:37:01;;;;;;;5.47;5.07;;;;;;;;;;5115262;28;20426;-78
2023/05/29 20:39:39;;;;;;;8.07;5.80;;;;;;;;;;5119135;28;20463;-77
2023/05/29 20:42:21;;;;;;;6.30;5.03;;;;;;;;;;5120846;28;20465;-78
2023/05/29 20:44:57;;;;;;;5.60;4.80;;;;;;;;;;5120654;28;20446;-76
2023/05/29 20:47:27;;;;;;;6.47;5.87;;;;;;;;;;5121520;28;20525;-77
2023/05/29 20:50:03;;;;;;;6.33;5.77;;;;;;;;;;5121969;28;20953;-77
2023/05/29 20:52:36;;;;;;;9.20;5.63;;;;;;;;;;5123481;28;20485;-81
2023/05/29 20:55:10;;;;;;;5.47;4.97;;;;;;;;;;5126554;28;20476;-78
2023/05/29 20:57:41;;;;;;;4.93;4.40;;;;;;;;;;5124684;28;20466;-77
2023/05/29 21:00:12;;;;;;;5.37;4.83;;;;;;;;;;5123255;28;20485;-78
2023/05/29 21:02:41;;;;;;;5.50;5.00;;;;;;;;;;5122044;28;20518;-78
2023/05/29 21:05:10;;;;;;;5.67;5.20;;;;;;;;;;5123430;28;20462;-78
2023/05/29 21:07:38;;;;;;;4.97;4.53;;;;;;;;;;5126354;28;20458;-78
2023/05/29 21:10:06;;;;;;;5.03;4.63;;;;;;;;;;5125569;28;20493;-77